sensor_id;sensor_type;location;lat;lon;timestamp;P1;durP1;ratioP1;P2;durP2;ratioP2
12970;SDS011;6550;48.650;8.774;2023-02-03T00:02:22;1.50;;;1.40;;
12970;SDS011;6550;48.650;8.774;2023-02-03T00:04:48;1.97;;;1.30;;
12970;SDS011;6550;48.650;8.774;2023-02-03T00:07:17;1.30;;;1.20;;
12970;SDS011;6550;48.650;8.774;2023-02-03T00:09:47;1.60;;;1.37;;
12970;SDS011;6550;48.650;8.774;2023-02-03T00:12:13;1.33;;;1.23;;
12970;SDS011;6550;48.650;8.774;2023-02-03T00:14:42;1.40;;;1.30;;
12970;SDS011;6550;48.650;8.774;2023-02-03T00:17:11;1.03;;;1.03;;
12970;SDS011;6550;48.650;8.774;2023-02-03T00:19:40;1.47;;;1.10;;
12970;SDS011;6550;48.650;8.774;2023-02-03T00:22:06;2.53;;;1.10;;
12970;SDS011;6550;48.650;8.774;2023-02-03T00:24:36;1.50;;;1.40;;
12970;SDS011;6550;48.650;8.774;2023-02-03T00:27:02;1.90;;;1.00;;
12970;SDS011;6550;48.650;8.774;2023-02-03T00:29:29;1.17;;;1.07;;
12970;SDS011;6550;48.650;8.774;2023-02-03T00:32:00;1.10;;;1.00;;
12970;SDS011;6550;48.650;8.774;2023-02-03T00:34:30;0.90;;;0.90;;
12970;SDS011;6550;48.650;8.774;2023-02-03T00:36:57;1.00;;;0.93;;
12970;SDS011;6550;48.650;8.774;2023-02-03T00:39:24;1.00;;;0.90;;
12970;SDS011;6550;48.650;8.774;2023-02-03T00:41:50;1.00;;;1.00;;
12970;SDS011;6550;48.650;8.774;2023-02-03T00:44:17;1.50;;;1.00;;
12970;SDS011;6550;48.650;8.774;2023-02-03T00:46:44;0.57;;;0.57;;
12970;SDS011;6550;48.650;8.774;2023-02-03T00:49:11;1.40;;;0.90;;
12970;SDS011;6550;48.650;8.774;2023-02-03T00:51:42;0.70;;;0.70;;
12970;SDS011;6550;48.650;8.774;2023-02-03T00:54:11;1.23;;;1.00;;
12970;SDS011;6550;48.650;8.774;2023-02-03T00:56:39;0.80;;;0.80;;
12970;SDS011;6550;48.650;8.774;2023-02-03T00:59:10;0.80;;;0.80;;
12970;SDS011;6550;48.650;8.774;2023-02-03T01:01:39;1.00;;;0.90;;
12970;SDS011;6550;48.650;8.774;2023-02-03T01:04:06;0.90;;;0.90;;
12970;SDS011;6550;48.650;8.774;2023-02-03T01:06:33;0.97;;;0.83;;
12970;SDS011;6550;48.650;8.774;2023-02-03T01:09:00;0.87;;;0.87;;
12970;SDS011;6550;48.650;8.774;2023-02-03T01:11:28;0.90;;;0.90;;
12970;SDS011;6550;48.650;8.774;2023-02-03T01:13:55;1.00;;;0.90;;
12970;SDS011;6550;48.650;8.774;2023-02-03T01:16:24;1.37;;;1.00;;
12970;SDS011;6550;48.650;8.774;2023-02-03T01:18:55;0.80;;;0.80;;
12970;SDS011;6550;48.650;8.774;2023-02-03T01:21:24;0.80;;;0.80;;
12970;SDS011;6550;48.650;8.774;2023-02-03T01:23:53;1.13;;;0.93;;
12970;SDS011;6550;48.650;8.774;2023-02-03T01:26:21;1.00;;;0.90;;
12970;SDS011;6550;48.650;8.774;2023-02-03T01:28:56;1.80;;;0.93;;
12970;SDS011;6550;48.650;8.774;2023-02-03T01:31:31;0.77;;;0.77;;
12970;SDS011;6550;48.650;8.774;2023-02-03T01:34:05;1.17;;;0.90;;
12970;SDS011;6550;48.650;8.774;2023-02-03T01:36:33;0.87;;;0.87;;
12970;SDS011;6550;48.650;8.774;2023-02-03T01:39:00;1.00;;;0.90;;
12970;SDS011;6550;48.650;8.774;2023-02-03T01:41:34;0.83;;;0.80;;
12970;SDS011;6550;48.650;8.774;2023-02-03T01:47:14;0.80;;;0.80;;
12970;SDS011;6550;48.650;8.774;2023-02-03T01:52:31;0.80;;;0.80;;
12970;SDS011;6550;48.650;8.774;2023-02-03T01:54:59;0.80;;;0.80;;
12970;SDS011;6550;48.650;8.774;2023-02-03T01:57:32;0.80;;;0.80;;
12970;SDS011;6550;48.650;8.774;2023-02-03T02:00:03;0.60;;;0.60;;
12970;SDS011;6550;48.650;8.774;2023-02-03T02:02:35;0.93;;;0.90;;
12970;SDS011;6550;48.650;8.774;2023-02-03T02:07:30;2.30;;;1.20;;
12970;SDS011;6550;48.650;8.774;2023-02-03T02:10:00;0.70;;;0.70;;
12970;SDS011;6550;48.650;8.774;2023-02-03T02:12:28;3.10;;;1.10;;
12970;SDS011;6550;48.650;8.774;2023-02-03T02:14:57;2.40;;;0.90;;
12970;SDS011;6550;48.650;8.774;2023-02-03T02:41:41;1.20;;;1.00;;
12970;SDS011;6550;48.650;8.774;2023-02-03T02:44:29;0.80;;;0.80;;
12970;SDS011;6550;48.650;8.774;2023-02-03T02:47:13;1.13;;;1.02;;
12970;SDS011;6550;48.650;8.774;2023-02-03T02:52:18;0.80;;;0.80;;
12970;SDS011;6550;48.650;8.774;2023-02-03T02:54:48;1.30;;;1.00;;
12970;SDS011;6550;48.650;8.774;2023-02-03T02:57:19;0.80;;;0.80;;
12970;SDS011;6550;48.650;8.774;2023-02-03T02:59:49;0.97;;;0.87;;
12970;SDS011;6550;48.650;8.774;2023-02-03T03:02:16;0.70;;;0.70;;
12970;SDS011;6550;48.650;8.774;2023-02-03T03:04:43;0.80;;;0.80;;
12970;SDS011;6550;48.650;8.774;2023-02-03T03:07:15;1.47;;;1.00;;
12970;SDS011;6550;48.650;8.774;2023-02-03T03:09:46;1.13;;;0.60;;
12970;SDS011;6550;48.650;8.774;2023-02-03T03:12:23;1.23;;;0.80;;
12970;SDS011;6550;48.650;8.774;2023-02-03T03:15:11;0.83;;;0.80;;
12970;SDS011;6550;48.650;8.774;2023-02-03T03:17:49;0.85;;;0.80;;
12970;SDS011;6550;48.650;8.774;2023-02-03T03:20:24;0.90;;;0.70;;
12970;SDS011;6550;48.650;8.774;2023-02-03T03:22:57;0.83;;;0.70;;
12970;SDS011;6550;48.650;8.774;2023-02-03T03:25:36;0.60;;;0.60;;
12970;SDS011;6550;48.650;8.774;2023-02-03T03:28:12;0.70;;;0.70;;
12970;SDS011;6550;48.650;8.774;2023-02-03T03:30:45;1.27;;;0.80;;
12970;SDS011;6550;48.650;8.774;2023-02-03T03:33:12;0.80;;;0.70;;
12970;SDS011;6550;48.650;8.774;2023-02-03T03:35:44;1.60;;;0.80;;
12970;SDS011;6550;48.650;8.774;2023-02-03T03:38:36;0.60;;;0.60;;
12970;SDS011;6550;48.650;8.774;2023-02-03T03:41:24;0.73;;;0.60;;
12970;SDS011;6550;48.650;8.774;2023-02-03T03:43:56;0.50;;;0.50;;
12970;SDS011;6550;48.650;8.774;2023-02-03T03:46:29;0.37;;;0.30;;
12970;SDS011;6550;48.650;8.774;2023-02-03T03:49:02;1.50;;;0.63;;
12970;SDS011;6550;48.650;8.774;2023-02-03T03:51:39;0.63;;;0.63;;
12970;SDS011;6550;48.650;8.774;2023-02-03T03:54:16;1.23;;;0.90;;
12970;SDS011;6550;48.650;8.774;2023-02-03T03:57:31;1.23;;;0.77;;
12970;SDS011;6550;48.650;8.774;2023-02-03T03:59:43;0.53;;;0.53;;
12970;SDS011;6550;48.650;8.774;2023-02-03T04:02:13;0.50;;;0.50;;
12970;SDS011;6550;48.650;8.774;2023-02-03T04:04:43;0.67;;;0.53;;
12970;SDS011;6550;48.650;8.774;2023-02-03T04:07:11;0.50;;;0.50;;
12970;SDS011;6550;48.650;8.774;2023-02-03T04:09:38;0.70;;;0.70;;
12970;SDS011;6550;48.650;8.774;2023-02-03T04:12:22;1.27;;;0.47;;
12970;SDS011;6550;48.650;8.774;2023-02-03T04:14:49;0.60;;;0.60;;
12970;SDS011;6550;48.650;8.774;2023-02-03T04:17:16;1.13;;;0.67;;
12970;SDS011;6550;48.650;8.774;2023-02-03T04:19:45;0.53;;;0.50;;
12970;SDS011;6550;48.650;8.774;2023-02-03T04:22:15;0.60;;;0.60;;
12970;SDS011;6550;48.650;8.774;2023-02-03T04:24:42;0.50;;;0.50;;
12970;SDS011;6550;48.650;8.774;2023-02-03T04:27:08;0.60;;;0.60;;
12970;SDS011;6550;48.650;8.774;2023-02-03T04:29:35;0.60;;;0.60;;
12970;SDS011;6550;48.650;8.774;2023-02-03T04:32:04;0.60;;;0.60;;
12970;SDS011;6550;48.650;8.774;2023-02-03T04:34:31;1.47;;;0.70;;
12970;SDS011;6550;48.650;8.774;2023-02-03T04:36:57;0.90;;;0.60;;
12970;SDS011;6550;48.650;8.774;2023-02-03T04:39:26;0.90;;;0.70;;
12970;SDS011;6550;48.650;8.774;2023-02-03T04:41:53;1.90;;;0.80;;
12970;SDS011;6550;48.650;8.774;2023-02-03T04:44:20;1.27;;;0.80;;
12970;SDS011;6550;48.650;8.774;2023-02-03T04:46:46;1.07;;;0.70;;
12970;SDS011;6550;48.650;8.774;2023-02-03T04:49:13;0.93;;;0.50;;
12970;SDS011;6550;48.650;8.774;2023-02-03T04:51:42;0.90;;;0.70;;
12970;SDS011;6550;48.650;8.774;2023-02-03T04:54:10;1.00;;;0.60;;
12970;SDS011;6550;48.650;8.774;2023-02-03T04:56:36;1.27;;;0.50;;
12970;SDS011;6550;48.650;8.774;2023-02-03T04:59:06;0.73;;;0.70;;
12970;SDS011;6550;48.650;8.774;2023-02-03T05:01:33;0.87;;;0.70;;
12970;SDS011;6550;48.650;8.774;2023-02-03T05:04:02;0.70;;;0.70;;
12970;SDS011;6550;48.650;8.774;2023-02-03T05:06:29;0.63;;;0.63;;
12970;SDS011;6550;48.650;8.774;2023-02-03T05:08:57;1.63;;;0.73;;
12970;SDS011;6550;48.650;8.774;2023-02-03T05:11:23;0.75;;;0.75;;
12970;SDS011;6550;48.650;8.774;2023-02-03T05:13:50;0.63;;;0.60;;
12970;SDS011;6550;48.650;8.774;2023-02-03T05:16:18;1.43;;;0.77;;
12970;SDS011;6550;48.650;8.774;2023-02-03T05:18:45;0.80;;;0.73;;
12970;SDS011;6550;48.650;8.774;2023-02-03T05:21:14;1.90;;;0.90;;
12970;SDS011;6550;48.650;8.774;2023-02-03T05:23:41;2.20;;;0.80;;
12970;SDS011;6550;48.650;8.774;2023-02-03T05:26:10;1.30;;;1.20;;
12970;SDS011;6550;48.650;8.774;2023-02-03T05:28:40;1.10;;;1.00;;
12970;SDS011;6550;48.650;8.774;2023-02-03T05:31:07;1.23;;;1.13;;
12970;SDS011;6550;48.650;8.774;2023-02-03T05:33:39;1.53;;;0.90;;
12970;SDS011;6550;48.650;8.774;2023-02-03T05:36:06;1.00;;;1.00;;
12970;SDS011;6550;48.650;8.774;2023-02-03T05:38:35;2.97;;;1.30;;
12970;SDS011;6550;48.650;8.774;2023-02-03T05:41:02;1.47;;;1.30;;
12970;SDS011;6550;48.650;8.774;2023-02-03T05:43:47;1.20;;;1.10;;
12970;SDS011;6550;48.650;8.774;2023-02-03T05:46:17;1.20;;;1.10;;
12970;SDS011;6550;48.650;8.774;2023-02-03T05:48:43;1.00;;;1.00;;
12970;SDS011;6550;48.650;8.774;2023-02-03T05:51:12;2.03;;;1.30;;
12970;SDS011;6550;48.650;8.774;2023-02-03T05:53:39;1.40;;;1.30;;
12970;SDS011;6550;48.650;8.774;2023-02-03T05:56:06;1.97;;;1.30;;
12970;SDS011;6550;48.650;8.774;2023-02-03T05:58:35;1.27;;;1.03;;
12970;SDS011;6550;48.650;8.774;2023-02-03T06:01:03;1.63;;;1.30;;
12970;SDS011;6550;48.650;8.774;2023-02-03T06:03:35;1.20;;;1.10;;
12970;SDS011;6550;48.650;8.774;2023-02-03T06:06:02;1.07;;;1.07;;
12970;SDS011;6550;48.650;8.774;2023-02-03T06:08:31;1.53;;;1.00;;
12970;SDS011;6550;48.650;8.774;2023-02-03T06:10:59;1.60;;;1.03;;
12970;SDS011;6550;48.650;8.774;2023-02-03T06:13:33;1.50;;;1.40;;
12970;SDS011;6550;48.650;8.774;2023-02-03T06:16:02;1.40;;;1.30;;
12970;SDS011;6550;48.650;8.774;2023-02-03T06:18:30;1.57;;;1.40;;
12970;SDS011;6550;48.650;8.774;2023-02-03T06:20:57;1.57;;;1.20;;
12970;SDS011;6550;48.650;8.774;2023-02-03T06:23:23;1.43;;;1.33;;
12970;SDS011;6550;48.650;8.774;2023-02-03T06:25:50;1.47;;;1.30;;
12970;SDS011;6550;48.650;8.774;2023-02-03T06:28:20;2.33;;;1.20;;
12970;SDS011;6550;48.650;8.774;2023-02-03T06:30:50;3.17;;;1.50;;
12970;SDS011;6550;48.650;8.774;2023-02-03T06:33:19;1.77;;;1.50;;
12970;SDS011;6550;48.650;8.774;2023-02-03T06:35:45;1.60;;;1.50;;
12970;SDS011;6550;48.650;8.774;2023-02-03T06:38:14;1.67;;;1.27;;
12970;SDS011;6550;48.650;8.774;2023-02-03T06:40:41;1.63;;;1.27;;
12970;SDS011;6550;48.650;8.774;2023-02-03T06:43:11;2.87;;;1.40;;
12970;SDS011;6550;48.650;8.774;2023-02-03T06:45:37;1.40;;;1.30;;
12970;SDS011;6550;48.650;8.774;2023-02-03T06:48:04;1.40;;;1.30;;
12970;SDS011;6550;48.650;8.774;2023-02-03T06:50:33;1.40;;;1.30;;
12970;SDS011;6550;48.650;8.774;2023-02-03T06:53:01;1.50;;;1.37;;
12970;SDS011;6550;48.650;8.774;2023-02-03T06:55:27;1.63;;;1.40;;
12970;SDS011;6550;48.650;8.774;2023-02-03T06:57:54;1.40;;;1.30;;
12970;SDS011;6550;48.650;8.774;2023-02-03T07:00:21;1.40;;;1.30;;
12970;SDS011;6550;48.650;8.774;2023-02-03T07:02:53;1.57;;;1.33;;
12970;SDS011;6550;48.650;8.774;2023-02-03T07:05:23;1.83;;;1.30;;
12970;SDS011;6550;48.650;8.774;2023-02-03T07:07:52;1.40;;;1.30;;
12970;SDS011;6550;48.650;8.774;2023-02-03T07:10:19;1.23;;;1.13;;
12970;SDS011;6550;48.650;8.774;2023-02-03T07:12:46;1.63;;;1.20;;
12970;SDS011;6550;48.650;8.774;2023-02-03T07:15:13;1.63;;;1.53;;
12970;SDS011;6550;48.650;8.774;2023-02-03T07:17:39;1.92;;;1.45;;
12970;SDS011;6550;48.650;8.774;2023-02-03T07:20:09;1.67;;;1.40;;
12970;SDS011;6550;48.650;8.774;2023-02-03T07:22:38;1.67;;;1.40;;
12970;SDS011;6550;48.650;8.774;2023-02-03T07:25:07;1.87;;;1.60;;
12970;SDS011;6550;48.650;8.774;2023-02-03T07:27:34;1.43;;;1.10;;
12970;SDS011;6550;48.650;8.774;2023-02-03T07:30:00;3.20;;;1.60;;
12970;SDS011;6550;48.650;8.774;2023-02-03T07:32:27;1.50;;;1.20;;
12970;SDS011;6550;48.650;8.774;2023-02-03T07:34:58;1.30;;;1.20;;
12970;SDS011;6550;48.650;8.774;2023-02-03T07:37:26;3.20;;;1.30;;
12970;SDS011;6550;48.650;8.774;2023-02-03T07:39:53;1.90;;;1.67;;
12970;SDS011;6550;48.650;8.774;2023-02-03T07:42:19;1.13;;;1.03;;
12970;SDS011;6550;48.650;8.774;2023-02-03T07:44:48;3.13;;;1.30;;
12970;SDS011;6550;48.650;8.774;2023-02-03T07:47:17;3.10;;;1.40;;
12970;SDS011;6550;48.650;8.774;2023-02-03T07:49:44;3.50;;;1.40;;
12970;SDS011;6550;48.650;8.774;2023-02-03T07:52:11;1.10;;;1.00;;
12970;SDS011;6550;48.650;8.774;2023-02-03T07:54:37;1.83;;;1.70;;
12970;SDS011;6550;48.650;8.774;2023-02-03T07:57:09;2.83;;;1.37;;
12970;SDS011;6550;48.650;8.774;2023-02-03T07:59:38;1.90;;;1.30;;
12970;SDS011;6550;48.650;8.774;2023-02-03T08:02:05;2.27;;;1.50;;
12970;SDS011;6550;48.650;8.774;2023-02-03T08:04:34;1.50;;;1.23;;
12970;SDS011;6550;48.650;8.774;2023-02-03T08:07:01;1.83;;;1.13;;
12970;SDS011;6550;48.650;8.774;2023-02-03T08:09:28;1.20;;;1.10;;
12970;SDS011;6550;48.650;8.774;2023-02-03T08:11:57;3.53;;;1.30;;
12970;SDS011;6550;48.650;8.774;2023-02-03T08:14:26;2.53;;;1.30;;
12970;SDS011;6550;48.650;8.774;2023-02-03T08:16:55;3.43;;;1.40;;
12970;SDS011;6550;48.650;8.774;2023-02-03T08:19:24;11.73;;;1.43;;
12970;SDS011;6550;48.650;8.774;2023-02-03T08:21:53;14.10;;;1.37;;
12970;SDS011;6550;48.650;8.774;2023-02-03T08:24:19;2.27;;;1.33;;
12970;SDS011;6550;48.650;8.774;2023-02-03T08:26:46;3.53;;;1.77;;
12970;SDS011;6550;48.650;8.774;2023-02-03T08:29:13;8.90;;;1.20;;
12970;SDS011;6550;48.650;8.774;2023-02-03T08:31:42;3.30;;;1.30;;
12970;SDS011;6550;48.650;8.774;2023-02-03T08:34:09;2.23;;;1.30;;
12970;SDS011;6550;48.650;8.774;2023-02-03T08:36:40;2.17;;;1.30;;
12970;SDS011;6550;48.650;8.774;2023-02-03T08:39:09;2.10;;;1.50;;
12970;SDS011;6550;48.650;8.774;2023-02-03T08:41:36;6.13;;;1.37;;
12970;SDS011;6550;48.650;8.774;2023-02-03T08:44:03;3.23;;;1.47;;
12970;SDS011;6550;48.650;8.774;2023-02-03T08:46:32;2.47;;;1.37;;
12970;SDS011;6550;48.650;8.774;2023-02-03T08:49:01;5.28;;;1.70;;
12970;SDS011;6550;48.650;8.774;2023-02-03T08:51:30;3.67;;;1.23;;
12970;SDS011;6550;48.650;8.774;2023-02-03T08:54:02;7.17;;;1.83;;
12970;SDS011;6550;48.650;8.774;2023-02-03T08:56:31;1.80;;;1.50;;
12970;SDS011;6550;48.650;8.774;2023-02-03T08:58:59;4.00;;;1.50;;
12970;SDS011;6550;48.650;8.774;2023-02-03T09:01:28;2.00;;;1.57;;
12970;SDS011;6550;48.650;8.774;2023-02-03T09:03:55;1.63;;;1.27;;
12970;SDS011;6550;48.650;8.774;2023-02-03T09:06:23;2.93;;;1.70;;
12970;SDS011;6550;48.650;8.774;2023-02-03T09:08:52;2.10;;;1.33;;
12970;SDS011;6550;48.650;8.774;2023-02-03T09:11:21;2.23;;;1.50;;
12970;SDS011;6550;48.650;8.774;2023-02-03T09:13:48;2.13;;;1.60;;
12970;SDS011;6550;48.650;8.774;2023-02-03T09:16:17;1.50;;;1.40;;
12970;SDS011;6550;48.650;8.774;2023-02-03T09:18:46;1.80;;;1.60;;
12970;SDS011;6550;48.650;8.774;2023-02-03T09:21:14;2.77;;;1.47;;
12970;SDS011;6550;48.650;8.774;2023-02-03T09:24:01;1.67;;;1.50;;
12970;SDS011;6550;48.650;8.774;2023-02-03T09:26:31;4.03;;;1.50;;
12970;SDS011;6550;48.650;8.774;2023-02-03T09:28:57;3.13;;;1.60;;
12970;SDS011;6550;48.650;8.774;2023-02-03T09:31:27;1.90;;;1.67;;
12970;SDS011;6550;48.650;8.774;2023-02-03T09:33:57;2.23;;;1.70;;
12970;SDS011;6550;48.650;8.774;2023-02-03T09:36:24;1.87;;;1.73;;
12970;SDS011;6550;48.650;8.774;2023-02-03T09:38:51;1.80;;;1.60;;
12970;SDS011;6550;48.650;8.774;2023-02-03T09:46:41;3.17;;;1.83;;
12970;SDS011;6550;48.650;8.774;2023-02-03T09:52:18;1.80;;;1.70;;
12970;SDS011;6550;48.650;8.774;2023-02-03T09:57:25;1.60;;;1.50;;
12970;SDS011;6550;48.650;8.774;2023-02-03T09:59:56;2.47;;;1.57;;
12970;SDS011;6550;48.650;8.774;2023-02-03T10:10:38;1.20;;;1.10;;
12970;SDS011;6550;48.650;8.774;2023-02-03T10:13:46;1.90;;;1.20;;
12970;SDS011;6550;48.650;8.774;2023-02-03T10:18:55;2.47;;;1.40;;
12970;SDS011;6550;48.650;8.774;2023-02-03T10:21:35;1.50;;;1.40;;
12970;SDS011;6550;48.650;8.774;2023-02-03T10:24:39;1.20;;;1.10;;
12970;SDS011;6550;48.650;8.774;2023-02-03T10:27:14;1.40;;;1.30;;
12970;SDS011;6550;48.650;8.774;2023-02-03T10:29:54;1.43;;;1.20;;
12970;SDS011;6550;48.650;8.774;2023-02-03T10:32:31;1.37;;;1.27;;
12970;SDS011;6550;48.650;8.774;2023-02-03T10:35:01;1.50;;;1.30;;
12970;SDS011;6550;48.650;8.774;2023-02-03T10:40:10;1.43;;;1.20;;
12970;SDS011;6550;48.650;8.774;2023-02-03T10:42:38;1.00;;;1.00;;
12970;SDS011;6550;48.650;8.774;2023-02-03T10:45:26;1.17;;;1.07;;
12970;SDS011;6550;48.650;8.774;2023-02-03T10:47:54;1.23;;;1.13;;
12970;SDS011;6550;48.650;8.774;2023-02-03T10:50:22;1.30;;;1.10;;
12970;SDS011;6550;48.650;8.774;2023-02-03T10:53:39;1.03;;;0.93;;
12970;SDS011;6550;48.650;8.774;2023-02-03T10:56:10;2.27;;;1.03;;
12970;SDS011;6550;48.650;8.774;2023-02-03T10:58:38;1.20;;;1.10;;
12970;SDS011;6550;48.650;8.774;2023-02-03T11:01:13;1.20;;;1.10;;
12970;SDS011;6550;48.650;8.774;2023-02-03T11:03:59;1.03;;;0.93;;
12970;SDS011;6550;48.650;8.774;2023-02-03T11:06:29;2.50;;;1.17;;
12970;SDS011;6550;48.650;8.774;2023-02-03T11:08:58;1.23;;;1.13;;
12970;SDS011;6550;48.650;8.774;2023-02-03T11:11:29;1.20;;;1.10;;
12970;SDS011;6550;48.650;8.774;2023-02-03T11:16:29;1.27;;;1.17;;
12970;SDS011;6550;48.650;8.774;2023-02-03T11:19:06;1.40;;;1.30;;
12970;SDS011;6550;48.650;8.774;2023-02-03T11:21:52;1.13;;;1.03;;
12970;SDS011;6550;48.650;8.774;2023-02-03T11:24:27;1.37;;;1.10;;
12970;SDS011;6550;48.650;8.774;2023-02-03T11:27:00;1.23;;;1.10;;
12970;SDS011;6550;48.650;8.774;2023-02-03T11:29:39;1.20;;;1.10;;
12970;SDS011;6550;48.650;8.774;2023-02-03T11:34:55;1.10;;;1.00;;
12970;SDS011;6550;48.650;8.774;2023-02-03T11:37:36;1.00;;;1.00;;
12970;SDS011;6550;48.650;8.774;2023-02-03T11:42:38;0.90;;;0.80;;
12970;SDS011;6550;48.650;8.774;2023-02-03T11:47:53;1.05;;;0.90;;
12970;SDS011;6550;48.650;8.774;2023-02-03T12:15:00;1.10;;;0.90;;
12970;SDS011;6550;48.650;8.774;2023-02-03T12:17:49;0.77;;;0.77;;
12970;SDS011;6550;48.650;8.774;2023-02-03T12:26:29;0.90;;;0.80;;
12970;SDS011;6550;48.650;8.774;2023-02-03T12:37:49;1.00;;;0.90;;
12970;SDS011;6550;48.650;8.774;2023-02-03T12:40:35;0.80;;;0.80;;
12970;SDS011;6550;48.650;8.774;2023-02-03T12:46:18;1.40;;;1.00;;
12970;SDS011;6550;48.650;8.774;2023-02-03T12:54:20;0.80;;;0.80;;
12970;SDS011;6550;48.650;8.774;2023-02-03T12:56:48;0.83;;;0.83;;
12970;SDS011;6550;48.650;8.774;2023-02-03T12:59:22;0.80;;;0.80;;
12970;SDS011;6550;48.650;8.774;2023-02-03T13:01:56;0.63;;;0.63;;
12970;SDS011;6550;48.650;8.774;2023-02-03T13:04:48;1.20;;;0.90;;
12970;SDS011;6550;48.650;8.774;2023-02-03T13:12:30;1.00;;;1.00;;
12970;SDS011;6550;48.650;8.774;2023-02-03T13:18:04;7.60;;;0.90;;
12970;SDS011;6550;48.650;8.774;2023-02-03T13:20:36;1.00;;;0.97;;
12970;SDS011;6550;48.650;8.774;2023-02-03T13:23:04;1.00;;;1.00;;
12970;SDS011;6550;48.650;8.774;2023-02-03T13:42:25;2.00;;;1.20;;
12970;SDS011;6550;48.650;8.774;2023-02-03T13:44:57;1.40;;;1.30;;
12970;SDS011;6550;48.650;8.774;2023-02-03T13:47:28;1.80;;;1.23;;
12970;SDS011;6550;48.650;8.774;2023-02-03T13:49:59;2.87;;;1.30;;
12970;SDS011;6550;48.650;8.774;2023-02-03T13:52:35;1.08;;;0.98;;
12970;SDS011;6550;48.650;8.774;2023-02-03T13:55:21;1.43;;;1.23;;
12970;SDS011;6550;48.650;8.774;2023-02-03T13:57:56;1.13;;;1.03;;
12970;SDS011;6550;48.650;8.774;2023-02-03T14:03:18;0.97;;;0.97;;
12970;SDS011;6550;48.650;8.774;2023-02-03T14:05:52;1.20;;;1.10;;
12970;SDS011;6550;48.650;8.774;2023-02-03T14:16:39;1.63;;;1.20;;
12970;SDS011;6550;48.650;8.774;2023-02-03T14:24:36;1.27;;;0.97;;
12970;SDS011;6550;48.650;8.774;2023-02-03T14:27:25;0.97;;;0.97;;
12970;SDS011;6550;48.650;8.774;2023-02-03T14:30:10;1.50;;;1.30;;
12970;SDS011;6550;48.650;8.774;2023-02-03T14:35:17;1.90;;;1.30;;
12970;SDS011;6550;48.650;8.774;2023-02-03T14:37:50;1.48;;;1.38;;
12970;SDS011;6550;48.650;8.774;2023-02-03T14:57:02;1.50;;;1.40;;
12970;SDS011;6550;48.650;8.774;2023-02-03T14:59:46;1.83;;;1.37;;
12970;SDS011;6550;48.650;8.774;2023-02-03T15:02:27;1.70;;;1.60;;
12970;SDS011;6550;48.650;8.774;2023-02-03T15:12:54;1.43;;;1.20;;
12970;SDS011;6550;48.650;8.774;2023-02-03T15:18:19;1.30;;;1.20;;
12970;SDS011;6550;48.650;8.774;2023-02-03T15:20:45;1.40;;;1.30;;
12970;SDS011;6550;48.650;8.774;2023-02-03T15:23:19;2.53;;;1.20;;
12970;SDS011;6550;48.650;8.774;2023-02-03T15:25:58;1.53;;;1.37;;
12970;SDS011;6550;48.650;8.774;2023-02-03T15:28:29;1.40;;;1.30;;
12970;SDS011;6550;48.650;8.774;2023-02-03T15:31:15;1.60;;;1.50;;
12970;SDS011;6550;48.650;8.774;2023-02-03T15:33:50;1.70;;;1.50;;
12970;SDS011;6550;48.650;8.774;2023-02-03T15:36:22;1.77;;;1.40;;
12970;SDS011;6550;48.650;8.774;2023-02-03T15:38:57;1.40;;;1.30;;
12970;SDS011;6550;48.650;8.774;2023-02-03T15:41:34;1.60;;;1.50;;
12970;SDS011;6550;48.650;8.774;2023-02-03T15:44:05;1.67;;;1.57;;
12970;SDS011;6550;48.650;8.774;2023-02-03T15:46:38;1.43;;;1.33;;
12970;SDS011;6550;48.650;8.774;2023-02-03T15:49:12;1.52;;;1.42;;
12970;SDS011;6550;48.650;8.774;2023-02-03T15:51:49;1.73;;;1.63;;
12970;SDS011;6550;48.650;8.774;2023-02-03T15:54:29;1.47;;;1.37;;
12970;SDS011;6550;48.650;8.774;2023-02-03T15:57:07;1.37;;;1.27;;
12970;SDS011;6550;48.650;8.774;2023-02-03T15:59:46;2.20;;;1.70;;
12970;SDS011;6550;48.650;8.774;2023-02-03T16:02:29;1.60;;;1.50;;
12970;SDS011;6550;48.650;8.774;2023-02-03T16:05:05;1.60;;;1.50;;
12970;SDS011;6550;48.650;8.774;2023-02-03T16:11:00;1.77;;;1.67;;
12970;SDS011;6550;48.650;8.774;2023-02-03T16:13:48;1.60;;;1.50;;
12970;SDS011;6550;48.650;8.774;2023-02-03T16:16:20;1.30;;;1.20;;
12970;SDS011;6550;48.650;8.774;2023-02-03T16:18:51;2.13;;;1.47;;
12970;SDS011;6550;48.650;8.774;2023-02-03T16:21:27;1.60;;;1.50;;
12970;SDS011;6550;48.650;8.774;2023-02-03T16:23:56;1.40;;;1.30;;
12970;SDS011;6550;48.650;8.774;2023-02-03T16:26:27;1.87;;;1.77;;
12970;SDS011;6550;48.650;8.774;2023-02-03T16:31:44;1.10;;;1.10;;
12970;SDS011;6550;48.650;8.774;2023-02-03T16:34:30;1.20;;;1.10;;
12970;SDS011;6550;48.650;8.774;2023-02-03T16:37:24;1.20;;;1.10;;
12970;SDS011;6550;48.650;8.774;2023-02-03T16:40:11;1.10;;;1.10;;
12970;SDS011;6550;48.650;8.774;2023-02-03T16:42:57;1.23;;;1.13;;
12970;SDS011;6550;48.650;8.774;2023-02-03T16:45:43;1.27;;;1.17;;
12970;SDS011;6550;48.650;8.774;2023-02-03T16:48:28;1.30;;;1.20;;
12970;SDS011;6550;48.650;8.774;2023-02-03T16:51:14;0.93;;;0.93;;
12970;SDS011;6550;48.650;8.774;2023-02-03T16:53:43;1.47;;;1.37;;
12970;SDS011;6550;48.650;8.774;2023-02-03T16:56:13;2.30;;;1.40;;
12970;SDS011;6550;48.650;8.774;2023-02-03T16:58:40;1.80;;;1.70;;
12970;SDS011;6550;48.650;8.774;2023-02-03T17:01:07;1.70;;;1.60;;
12970;SDS011;6550;48.650;8.774;2023-02-03T17:03:37;1.50;;;1.40;;
12970;SDS011;6550;48.650;8.774;2023-02-03T17:06:05;1.60;;;1.50;;
12970;SDS011;6550;48.650;8.774;2023-02-03T17:08:37;1.70;;;1.60;;
12970;SDS011;6550;48.650;8.774;2023-02-03T17:11:13;1.50;;;1.40;;
12970;SDS011;6550;48.650;8.774;2023-02-03T17:13:44;1.40;;;1.30;;
12970;SDS011;6550;48.650;8.774;2023-02-03T17:16:13;1.40;;;1.30;;
12970;SDS011;6550;48.650;8.774;2023-02-03T17:18:42;1.80;;;1.60;;
12970;SDS011;6550;48.650;8.774;2023-02-03T17:21:12;2.40;;;1.63;;
12970;SDS011;6550;48.650;8.774;2023-02-03T17:23:41;2.63;;;1.87;;
12970;SDS011;6550;48.650;8.774;2023-02-03T17:26:09;1.50;;;1.37;;
12970;SDS011;6550;48.650;8.774;2023-02-03T17:28:37;1.80;;;1.40;;
12970;SDS011;6550;48.650;8.774;2023-02-03T17:31:12;1.77;;;1.67;;
12970;SDS011;6550;48.650;8.774;2023-02-03T17:33:41;1.50;;;1.40;;
12970;SDS011;6550;48.650;8.774;2023-02-03T17:38:37;1.77;;;1.63;;
12970;SDS011;6550;48.650;8.774;2023-02-03T17:41:23;2.73;;;1.50;;
12970;SDS011;6550;48.650;8.774;2023-02-03T17:44:10;1.63;;;1.53;;
12970;SDS011;6550;48.650;8.774;2023-02-03T17:46:54;2.07;;;1.70;;
12970;SDS011;6550;48.650;8.774;2023-02-03T17:49:44;1.67;;;1.57;;
12970;SDS011;6550;48.650;8.774;2023-02-03T17:52:29;1.77;;;1.53;;
12970;SDS011;6550;48.650;8.774;2023-02-03T17:55:14;2.37;;;2.17;;
12970;SDS011;6550;48.650;8.774;2023-02-03T17:57:41;2.27;;;1.87;;
12970;SDS011;6550;48.650;8.774;2023-02-03T18:00:07;2.17;;;1.80;;
12970;SDS011;6550;48.650;8.774;2023-02-03T18:02:37;2.00;;;1.80;;
12970;SDS011;6550;48.650;8.774;2023-02-03T18:05:07;2.97;;;1.60;;
12970;SDS011;6550;48.650;8.774;2023-02-03T18:07:37;1.77;;;1.67;;
12970;SDS011;6550;48.650;8.774;2023-02-03T18:10:04;1.50;;;1.40;;
12970;SDS011;6550;48.650;8.774;2023-02-03T18:12:31;2.03;;;1.80;;
12970;SDS011;6550;48.650;8.774;2023-02-03T18:14:58;1.80;;;1.70;;
12970;SDS011;6550;48.650;8.774;2023-02-03T18:17:24;1.83;;;1.70;;
12970;SDS011;6550;48.650;8.774;2023-02-03T18:19:53;2.37;;;2.03;;
12970;SDS011;6550;48.650;8.774;2023-02-03T18:22:21;2.53;;;2.10;;
12970;SDS011;6550;48.650;8.774;2023-02-03T18:24:48;2.40;;;2.20;;
12970;SDS011;6550;48.650;8.774;2023-02-03T18:27:18;2.63;;;2.43;;
12970;SDS011;6550;48.650;8.774;2023-02-03T18:29:46;2.30;;;2.10;;
12970;SDS011;6550;48.650;8.774;2023-02-03T18:32:13;2.83;;;2.50;;
12970;SDS011;6550;48.650;8.774;2023-02-03T18:34:41;3.45;;;2.90;;
12970;SDS011;6550;48.650;8.774;2023-02-03T18:37:08;2.83;;;2.40;;
12970;SDS011;6550;48.650;8.774;2023-02-03T18:39:35;3.47;;;3.07;;
12970;SDS011;6550;48.650;8.774;2023-02-03T18:42:01;3.93;;;2.80;;
12970;SDS011;6550;48.650;8.774;2023-02-03T18:44:29;3.07;;;2.40;;
12970;SDS011;6550;48.650;8.774;2023-02-03T18:46:59;2.70;;;2.45;;